createdAt,value
2022-10-20T00:01:53.209Z,7.88
2022-10-20T00:06:57.646Z,7.35
2022-10-20T00:09:37.791Z,7.90
2022-10-20T00:12:10.711Z,8.02
2022-10-20T00:14:40.437Z,8.40
2022-10-20T00:19:33.807Z,9.23
2022-10-20T00:22:01.581Z,8.82
2022-10-20T00:24:33.976Z,8.68
2022-10-20T00:27:08.338Z,9.52
2022-10-20T00:29:40.317Z,8.98
2022-10-20T00:32:39.425Z,9.55
2022-10-20T00:35:22.872Z,9.90
2022-10-20T00:37:49.877Z,9.60
2022-10-20T00:40:19.793Z,8.43
2022-10-20T00:42:52.430Z,9.85
2022-10-20T00:45:29.446Z,9.63
2022-10-20T00:47:59.622Z,8.88
2022-10-20T00:50:42.725Z,9.02
2022-10-20T00:53:29.360Z,8.85
2022-10-20T00:56:24.806Z,10.15
2022-10-20T00:58:51.922Z,10.32
2022-10-20T01:01:27.148Z,10.15
2022-10-20T01:04:19.483Z,10.73
2022-10-20T01:06:47.418Z,10.25
2022-10-20T01:09:14.550Z,10.23
2022-10-20T01:15:38.497Z,10.02
2022-10-20T01:18:21.347Z,8.68
2022-10-20T01:21:10.400Z,10.52
2022-10-20T01:24:15.141Z,10.27
2022-10-20T01:26:59.268Z,9.38
2022-10-20T01:29:49.237Z,9.45
2022-10-20T01:32:36.270Z,9.52
2022-10-20T01:35:21.726Z,9.68
2022-10-20T01:38:28.180Z,9.75
2022-10-20T01:41:21.583Z,9.73
2022-10-20T01:43:51.869Z,9.20
2022-10-20T01:49:07.568Z,9.60
2022-10-20T01:51:36.464Z,10.02
2022-10-20T01:54:41.133Z,9.07
2022-10-20T01:57:19.805Z,9.20
2022-10-20T01:59:55.833Z,9.13
2022-10-20T02:03:05.736Z,9.10
2022-10-20T02:05:44.585Z,9.70
2022-10-20T02:08:30.079Z,8.73
2022-10-20T02:21:19.467Z,7.97
2022-10-20T02:23:51.619Z,8.90
2022-10-20T02:26:22.839Z,8.75
2022-10-20T02:29:12.875Z,8.63
2022-10-20T02:31:39.968Z,8.52
2022-10-20T02:34:09.004Z,8.80
2022-10-20T02:36:40.480Z,9.68
2022-10-20T02:39:11.577Z,9.23
2022-10-20T02:41:45.399Z,9.30
2022-10-20T02:47:38.818Z,9.85
2022-10-20T02:50:08.313Z,8.43
2022-10-20T02:52:37.924Z,9.33
2022-10-20T02:55:06.371Z,9.13
2022-10-20T02:57:46.273Z,10.82
2022-10-20T03:00:15.466Z,9.70
2022-10-20T03:02:43.289Z,10.02
2022-10-20T03:05:14.307Z,10.30
2022-10-20T03:07:44.473Z,12.02
2022-10-20T03:10:13.449Z,10.00
2022-10-20T03:12:45.954Z,10.53
2022-10-20T03:15:34.600Z,10.02
2022-10-20T03:18:07.412Z,9.65
2022-10-20T03:20:36.784Z,9.77
2022-10-20T03:23:05.530Z,9.65
2022-10-20T03:25:33.451Z,9.38
2022-10-20T03:28:06.169Z,10.25
2022-10-20T03:30:34.264Z,8.70
2022-10-20T03:33:08.066Z,8.85
2022-10-20T03:35:37.981Z,8.60
2022-10-20T03:38:05.836Z,10.23
2022-10-20T03:40:45.592Z,10.48
2022-10-20T03:49:33.937Z,9.27
2022-10-20T03:52:11.701Z,8.35
2022-10-20T03:55:19.232Z,8.98
2022-10-20T03:57:54.942Z,8.57
2022-10-20T04:00:21.591Z,11.93
2022-10-20T04:03:35.706Z,11.38
2022-10-20T04:06:08.489Z,10.25
2022-10-20T04:08:44.637Z,12.55
2022-10-20T04:11:26.900Z,11.25
2022-10-20T04:13:54.271Z,12.95
2022-10-20T04:16:22.150Z,12.00
2022-10-20T04:18:54.484Z,13.77
2022-10-20T04:21:44.511Z,12.55
2022-10-20T04:24:13.574Z,11.77
2022-10-20T04:26:40.716Z,11.23
2022-10-20T04:29:08.464Z,9.48
2022-10-20T04:31:56.943Z,9.10
2022-10-20T04:35:12.146Z,9.82
2022-10-20T04:37:44.985Z,8.55
2022-10-20T04:40:12.839Z,7.97
2022-10-20T04:42:45.515Z,8.05
2022-10-20T04:45:14.396Z,8.98
2022-10-20T04:47:42.230Z,7.33
2022-10-20T04:50:09.674Z,8.10
2022-10-20T04:52:43.622Z,8.30
2022-10-20T04:55:16.370Z,7.65
2022-10-20T04:57:46.399Z,7.20
2022-10-20T05:00:15.082Z,7.07
2022-10-20T05:03:35.734Z,8.25
2022-10-20T05:06:17.485Z,7.65
2022-10-20T05:08:55.857Z,7.25
2022-10-20T05:11:25.292Z,7.28
2022-10-20T05:13:55.705Z,6.97
2022-10-20T05:16:47.625Z,8.00
2022-10-20T05:19:39.174Z,6.85
2022-10-20T05:22:07.077Z,6.97
2022-10-20T05:24:34.874Z,7.03
2022-10-20T05:27:02.948Z,7.40
2022-10-20T05:29:29.904Z,7.78
2022-10-20T05:32:10.693Z,7.15
2022-10-20T05:34:47.658Z,7.22
2022-10-20T05:39:49.740Z,7.95
2022-10-20T05:45:59.010Z,7.22
2022-10-20T05:48:25.622Z,7.15
2022-10-20T05:50:52.661Z,8.10
2022-10-20T05:53:40.105Z,7.30
2022-10-20T05:56:13.077Z,7.97
2022-10-20T05:58:40.586Z,6.95
2022-10-20T06:01:38.711Z,8.10
2022-10-20T06:04:12.516Z,7.28
2022-10-20T06:06:54.900Z,7.32
2022-10-20T06:09:24.813Z,7.05
2022-10-20T06:11:54.552Z,7.47
2022-10-20T06:16:52.161Z,7.55
2022-10-20T06:19:23.866Z,8.30
2022-10-20T06:21:51.364Z,7.53
2022-10-20T06:24:19.528Z,8.50
2022-10-20T06:26:46.636Z,9.20
2022-10-20T06:29:20.510Z,8.52
2022-10-20T06:32:02.504Z,8.75
2022-10-20T06:34:31.625Z,8.32
2022-10-20T06:36:58.636Z,8.32
2022-10-20T06:39:25.924Z,10.02
2022-10-20T06:41:58.894Z,8.52
2022-10-20T06:44:31.654Z,9.18
2022-10-20T06:46:58.706Z,9.13
2022-10-20T06:49:25.821Z,8.80
2022-10-20T06:51:59.793Z,8.13
2022-10-20T06:54:29.789Z,9.45
2022-10-20T06:56:57.557Z,9.48
2022-10-20T06:59:24.560Z,8.68
2022-10-20T07:01:58.741Z,8.55
2022-10-20T07:04:27.674Z,8.88
2022-10-20T07:06:55.680Z,8.40
2022-10-20T07:09:28.124Z,9.07
2022-10-20T07:11:57.916Z,7.90
2022-10-20T07:16:56.188Z,8.82
2022-10-20T07:19:47.853Z,8.50
2022-10-20T07:22:14.757Z,8.13
2022-10-20T07:24:59.342Z,8.73
2022-10-20T07:27:32.009Z,9.07
2022-10-20T07:30:10.093Z,8.13
2022-10-20T07:32:37.275Z,9.43
2022-10-20T07:35:13.330Z,9.50
2022-10-20T07:37:43.398Z,8.65
2022-10-20T07:40:11.032Z,9.40
2022-10-20T07:43:12.065Z,8.30
2022-10-20T07:45:40.108Z,8.75
2022-10-20T07:48:09.775Z,9.27
2022-10-20T07:50:38.103Z,8.15
2022-10-20T07:53:12.235Z,9.57
2022-10-20T07:55:55.272Z,10.00
2022-10-20T07:58:23.151Z,9.40
2022-10-20T08:00:49.765Z,9.60
2022-10-20T08:03:19.785Z,9.70
2022-10-20T08:05:46.794Z,9.73
2022-10-20T08:08:13.800Z,10.88
2022-10-20T08:10:40.540Z,10.05
2022-10-20T08:13:07.575Z,14.38
2022-10-20T08:15:37.465Z,11.50
2022-10-20T08:18:04.717Z,12.20
2022-10-20T08:20:42.620Z,11.40
2022-10-20T08:23:09.703Z,14.20
2022-10-20T08:25:36.670Z,14.95
2022-10-20T08:28:03.400Z,13.23
2022-10-20T08:30:30.516Z,20.33
2022-10-20T08:32:57.684Z,12.02
2022-10-20T08:35:24.817Z,25.15
2022-10-20T08:37:51.993Z,12.38
2022-10-20T08:40:25.016Z,11.82
2022-10-20T08:42:52.357Z,11.68
2022-10-20T08:45:25.457Z,18.98
2022-10-20T08:47:55.221Z,12.95
2022-10-20T08:50:23.339Z,42.08
2022-10-20T08:52:56.266Z,13.48
2022-10-20T08:55:33.589Z,12.50
2022-10-20T08:58:12.673Z,12.55
2022-10-20T09:00:40.482Z,11.30
2022-10-20T09:03:18.411Z,13.80
2022-10-20T09:06:02.745Z,12.98
2022-10-20T09:08:31.205Z,11.27
2022-10-20T09:10:58.998Z,10.95
2022-10-20T09:13:30.817Z,12.43
2022-10-20T09:16:33.437Z,16.17
2022-10-20T09:19:18.717Z,10.70
2022-10-20T09:21:50.759Z,12.27
2022-10-20T09:24:21.749Z,11.57
2022-10-20T09:26:59.036Z,12.65
2022-10-20T09:29:38.656Z,18.13
2022-10-20T09:32:44.846Z,21.52
2022-10-20T09:35:23.513Z,11.57
2022-10-20T09:38:01.217Z,15.25
2022-10-20T09:40:29.929Z,8.90
2022-10-20T09:43:15.245Z,9.00
2022-10-20T09:45:55.912Z,9.05
2022-10-20T09:48:36.506Z,9.95
2022-10-20T09:51:07.130Z,9.98
2022-10-20T09:53:41.388Z,8.90
2022-10-20T09:56:10.005Z,8.30
2022-10-20T09:58:39.122Z,8.27
2022-10-20T10:01:15.386Z,9.98
2022-10-20T10:03:47.673Z,8.45
2022-10-20T10:06:38.057Z,8.68
2022-10-20T10:09:31.838Z,9.25
2022-10-20T10:12:05.263Z,7.53
2022-10-20T10:14:36.344Z,7.13
2022-10-20T10:17:04.545Z,7.72
2022-10-20T10:19:33.109Z,7.28
2022-10-20T10:22:04.315Z,7.18
2022-10-20T10:24:48.367Z,5.93
2022-10-20T10:27:21.870Z,6.82
2022-10-20T10:29:50.174Z,6.13
2022-10-20T10:32:26.909Z,5.68
2022-10-20T10:35:37.716Z,6.72
2022-10-20T10:38:16.736Z,6.30
2022-10-20T10:41:06.589Z,5.50
2022-10-20T10:44:08.108Z,5.20
2022-10-20T10:49:16.757Z,5.68
2022-10-20T10:52:09.228Z,5.78
2022-10-20T10:55:47.278Z,5.25
2022-10-20T10:58:49.043Z,5.60
2022-10-20T11:01:46.085Z,4.72
2022-10-20T11:04:22.745Z,4.32
2022-10-20T11:07:11.970Z,4.07
2022-10-20T11:10:10.836Z,4.47
2022-10-20T11:12:46.963Z,4.43
2022-10-20T11:15:28.944Z,4.22
2022-10-20T11:18:18.021Z,4.22
2022-10-20T11:21:20.424Z,5.18
2022-10-20T11:24:01.037Z,4.22
2022-10-20T11:26:39.277Z,3.58
2022-10-20T11:29:16.617Z,3.63
2022-10-20T11:32:14.369Z,2.90
2022-10-20T11:34:58.777Z,3.17
2022-10-20T11:37:43.048Z,3.47
2022-10-20T11:40:09.985Z,2.78
2022-10-20T11:42:50.305Z,3.78
2022-10-20T11:45:32.646Z,3.50
2022-10-20T11:48:11.256Z,2.60
2022-10-20T11:50:42.218Z,2.93
2022-10-20T11:53:23.884Z,3.88
2022-10-20T11:56:35.064Z,2.83
2022-10-20T11:59:01.785Z,1.95
2022-10-20T12:01:43.859Z,3.15
2022-10-20T12:04:37.946Z,2.85
2022-10-20T12:07:44.881Z,2.38
2022-10-20T12:10:33.321Z,2.33
2022-10-20T12:13:33.705Z,2.80
2022-10-20T12:16:00.651Z,3.38
2022-10-20T12:18:32.812Z,4.05
2022-10-20T12:21:08.471Z,2.30
2022-10-20T12:23:45.080Z,2.72
2022-10-20T12:26:32.876Z,3.08
2022-10-20T12:29:31.493Z,2.58
2022-10-20T12:32:26.069Z,2.88
2022-10-20T12:34:55.932Z,3.25
2022-10-20T12:37:25.707Z,2.03
2022-10-20T12:39:55.066Z,2.30
2022-10-20T12:45:05.258Z,2.03
2022-10-20T12:47:37.153Z,2.15
2022-10-20T12:50:23.085Z,2.17
2022-10-20T12:52:49.942Z,4.40
2022-10-20T12:55:31.760Z,2.08
2022-10-20T12:58:18.388Z,2.60
2022-10-20T13:00:47.936Z,1.92
2022-10-20T13:03:47.618Z,2.25
2022-10-20T13:06:23.744Z,2.10
2022-10-20T13:09:02.963Z,3.95
2022-10-20T13:11:37.557Z,2.20
2022-10-20T13:14:24.789Z,1.83
2022-10-20T13:17:16.067Z,1.67
2022-10-20T13:20:16.285Z,1.73
2022-10-20T13:22:50.937Z,1.98
2022-10-20T13:25:36.987Z,1.70
2022-10-20T13:28:18.374Z,1.50
2022-10-20T13:30:52.125Z,1.20
2022-10-20T13:34:02.780Z,1.90
2022-10-20T13:36:39.865Z,2.22
2022-10-20T13:39:10.659Z,1.73
2022-10-20T13:41:45.782Z,2.08
2022-10-20T13:44:47.010Z,2.15
2022-10-20T13:47:44.638Z,1.30
2022-10-20T13:52:50.023Z,1.38
2022-10-20T13:55:25.060Z,1.70
2022-10-20T13:57:56.920Z,1.63
2022-10-20T14:00:33.062Z,1.67
2022-10-20T14:03:19.172Z,1.40
2022-10-20T14:05:46.994Z,2.33
2022-10-20T14:08:17.826Z,1.83
2022-10-20T14:11:04.669Z,1.65
2022-10-20T14:13:34.416Z,2.03
2022-10-20T14:16:04.772Z,2.08
2022-10-20T14:18:35.712Z,1.92
2022-10-20T14:21:17.616Z,2.25
2022-10-20T14:23:49.161Z,4.88
2022-10-20T14:26:21.336Z,3.05
2022-10-20T14:28:50.906Z,2.40
2022-10-20T14:31:22.527Z,2.00
2022-10-20T14:33:51.701Z,2.45
2022-10-20T14:39:01.224Z,1.50
2022-10-20T14:41:32.264Z,3.25
2022-10-20T14:44:09.310Z,1.98
2022-10-20T14:46:45.091Z,2.53
2022-10-20T14:49:33.998Z,1.60
2022-10-20T14:52:21.309Z,2.15
2022-10-20T14:54:50.300Z,1.73
2022-10-20T14:57:18.551Z,1.77
2022-10-20T15:00:14.970Z,2.50
2022-10-20T15:02:43.029Z,1.90
2022-10-20T15:05:41.382Z,1.30
2022-10-20T15:08:19.642Z,2.17
2022-10-20T15:10:48.111Z,2.40
2022-10-20T15:13:28.292Z,1.63
2022-10-20T15:15:56.983Z,2.08
2022-10-20T15:18:24.915Z,1.38
2022-10-20T15:20:53.583Z,2.00
2022-10-20T15:23:22.536Z,1.37
2022-10-20T15:26:05.803Z,1.88
2022-10-20T15:28:52.841Z,3.22
2022-10-20T15:31:26.605Z,1.20
2022-10-20T15:33:54.984Z,1.88
2022-10-20T15:36:33.064Z,1.55
2022-10-20T15:39:00.854Z,2.05
2022-10-20T15:41:33.442Z,1.30
2022-10-20T15:44:15.882Z,1.45
2022-10-20T15:46:44.836Z,1.73
2022-10-20T15:49:12.621Z,2.17
2022-10-20T15:51:43.191Z,1.35
2022-10-20T15:54:15.345Z,2.20
2022-10-20T15:56:42.847Z,1.73
2022-10-20T15:59:09.722Z,1.30
2022-10-20T16:01:36.798Z,1.48
2022-10-20T16:04:13.683Z,1.38
2022-10-20T16:06:40.651Z,1.50
2022-10-20T16:09:10.697Z,1.30
2022-10-20T16:11:40.464Z,1.67
2022-10-20T16:14:07.492Z,1.85
2022-10-20T16:16:34.551Z,1.70
2022-10-20T16:19:02.434Z,1.83
2022-10-20T16:21:29.423Z,2.05
2022-10-20T16:23:57.372Z,1.73
2022-10-20T16:26:25.183Z,1.50
2022-10-20T16:28:52.212Z,1.63
2022-10-20T16:31:19.524Z,1.60
2022-10-20T16:33:47.313Z,2.05
2022-10-20T16:36:16.167Z,1.40
2022-10-20T16:38:43.598Z,1.33
2022-10-20T16:41:15.449Z,3.05
2022-10-20T16:43:44.945Z,3.95
2022-10-20T16:48:42.621Z,4.13
2022-10-20T16:51:12.863Z,1.95
2022-10-20T16:53:40.567Z,5.50
2022-10-20T16:56:08.228Z,13.75
2022-10-20T16:58:36.090Z,6.50
2022-10-20T17:01:06.422Z,3.97
2022-10-20T17:03:33.542Z,2.60
2022-10-20T17:06:04.393Z,4.28
2022-10-20T17:08:34.088Z,2.45
2022-10-20T17:11:09.364Z,1.92
2022-10-20T17:13:37.814Z,2.80
2022-10-20T17:16:11.365Z,4.15
2022-10-20T17:18:39.208Z,2.53
2022-10-20T17:21:06.883Z,1.70
2022-10-20T17:23:37.450Z,2.80
2022-10-20T17:26:09.802Z,2.00
2022-10-20T17:28:37.752Z,2.03
2022-10-20T17:31:09.361Z,2.65
2022-10-20T17:33:37.307Z,1.58
2022-10-20T17:36:05.085Z,1.80
2022-10-20T17:38:34.198Z,1.90
2022-10-20T17:41:05.624Z,2.58
2022-10-20T17:43:33.051Z,2.40
2022-10-20T17:46:02.181Z,1.83
2022-10-20T17:48:30.177Z,2.33
2022-10-20T17:51:03.533Z,2.83
2022-10-20T17:53:39.925Z,2.00
2022-10-20T17:56:19.540Z,2.35
2022-10-20T17:58:49.232Z,2.08
2022-10-20T18:01:21.937Z,2.85
2022-10-20T18:03:53.637Z,2.83
2022-10-20T18:06:22.735Z,1.83
2022-10-20T18:08:52.270Z,2.47
2022-10-20T18:13:48.678Z,3.35
2022-10-20T18:16:19.052Z,2.15
2022-10-20T18:18:46.730Z,2.50
2022-10-20T18:21:15.342Z,2.60
2022-10-20T18:23:45.428Z,2.60
2022-10-20T18:26:15.456Z,2.83
2022-10-20T18:28:47.315Z,2.10
2022-10-20T18:31:23.873Z,2.83
2022-10-20T18:33:56.277Z,2.10
2022-10-20T18:36:25.235Z,2.03
2022-10-20T18:38:53.439Z,2.28
2022-10-20T18:41:26.841Z,2.42
2022-10-20T18:44:03.221Z,2.22
2022-10-20T18:46:32.845Z,3.53
2022-10-20T18:49:03.336Z,3.30
2022-10-20T18:51:32.690Z,2.97
2022-10-20T18:54:01.070Z,2.97
2022-10-20T18:56:29.959Z,2.72
2022-10-20T18:59:01.436Z,2.72
2022-10-20T19:01:31.685Z,2.33
2022-10-20T19:03:59.817Z,3.08
2022-10-20T19:06:31.777Z,3.90
2022-10-20T19:09:01.502Z,3.17
2022-10-20T19:11:30.947Z,3.40
2022-10-20T19:14:00.263Z,3.45
2022-10-20T19:16:31.106Z,3.38
2022-10-20T19:19:00.957Z,2.97
2022-10-20T19:21:28.919Z,3.38
2022-10-20T19:24:21.533Z,3.15
2022-10-20T19:27:24.470Z,3.63
2022-10-20T19:29:44.589Z,2.85
2022-10-20T19:32:12.664Z,2.97
2022-10-20T19:34:40.971Z,3.63
2022-10-20T19:37:08.713Z,3.40
2022-10-20T19:39:39.658Z,4.03
2022-10-20T19:42:07.719Z,3.65
2022-10-20T19:44:34.724Z,4.18
2022-10-20T19:47:01.845Z,3.33
2022-10-20T19:49:29.009Z,4.60
2022-10-20T19:51:56.873Z,4.15
2022-10-20T19:54:24.781Z,3.85
2022-10-20T19:56:51.866Z,4.03
2022-10-20T19:59:18.705Z,3.65
2022-10-20T20:01:45.563Z,3.78
2022-10-20T20:04:12.474Z,3.72
2022-10-20T20:06:39.548Z,4.35
2022-10-20T20:09:15.719Z,3.55
2022-10-20T20:11:43.470Z,4.20
2022-10-20T20:14:15.740Z,4.22
2022-10-20T20:16:45.898Z,5.05
2022-10-20T20:19:14.464Z,3.97
2022-10-20T20:21:41.397Z,4.40
2022-10-20T20:24:08.125Z,4.75
2022-10-20T20:26:36.596Z,5.07
2022-10-20T20:29:04.529Z,4.28
2022-10-20T20:31:32.043Z,4.55
2022-10-20T20:33:58.817Z,3.88
2022-10-20T20:36:27.546Z,4.32
2022-10-20T20:38:59.105Z,4.60
2022-10-20T20:41:29.991Z,4.20
2022-10-20T20:44:08.597Z,3.83
2022-10-20T20:46:36.473Z,4.47
2022-10-20T20:49:03.877Z,4.40
2022-10-20T20:51:33.523Z,4.32
2022-10-20T20:54:01.478Z,5.10
2022-10-20T20:56:28.377Z,4.45
2022-10-20T20:58:57.098Z,4.88
2022-10-20T21:01:28.773Z,5.00
2022-10-20T21:03:59.456Z,4.70
2022-10-20T21:07:00.207Z,4.38
2022-10-20T21:09:15.213Z,4.32
2022-10-20T21:11:42.904Z,4.38
2022-10-20T21:14:09.926Z,5.18
2022-10-20T21:16:37.528Z,4.00
2022-10-20T21:19:09.409Z,3.65
2022-10-20T21:21:39.204Z,4.93
2022-10-20T21:24:06.553Z,5.00
2022-10-20T21:26:33.542Z,4.30
2022-10-20T21:29:00.696Z,5.22
2022-10-20T21:31:29.097Z,5.30
2022-10-20T21:34:00.092Z,4.57
2022-10-20T21:36:29.172Z,4.22
2022-10-20T21:38:56.256Z,4.15
2022-10-20T21:41:25.949Z,4.22
2022-10-20T21:43:54.973Z,4.55
2022-10-20T21:46:28.550Z,4.85
2022-10-20T21:49:00.883Z,4.47
2022-10-20T21:51:32.129Z,4.93
2022-10-20T21:54:03.303Z,5.30
2022-10-20T21:56:36.289Z,5.28
2022-10-20T21:59:16.624Z,4.45
2022-10-20T22:01:45.161Z,5.10
2022-10-20T22:04:12.406Z,4.90
2022-10-20T22:06:40.843Z,4.20
2022-10-20T22:09:08.494Z,4.45
2022-10-20T22:11:38.903Z,4.90
2022-10-20T22:14:06.581Z,4.72
2022-10-20T22:16:36.169Z,5.32
2022-10-20T22:21:40.416Z,4.50
2022-10-20T22:24:07.834Z,4.43
2022-10-20T22:26:35.859Z,4.28
2022-10-20T22:29:04.616Z,4.43
2022-10-20T22:31:32.793Z,5.25
2022-10-20T22:33:59.789Z,3.63
2022-10-20T22:36:27.502Z,3.78
2022-10-20T22:38:55.064Z,3.97
2022-10-20T22:41:22.158Z,3.47
2022-10-20T22:43:50.393Z,4.00
2022-10-20T22:46:17.357Z,3.10
2022-10-20T22:48:44.341Z,3.40
2022-10-20T22:51:11.798Z,3.70
2022-10-20T22:53:39.697Z,2.78
2022-10-20T22:56:13.744Z,4.18
2022-10-20T22:58:41.105Z,1.95
2022-10-20T23:01:20.330Z,2.70
2022-10-20T23:03:48.509Z,2.42
2022-10-20T23:06:21.510Z,3.00
2022-10-20T23:08:51.568Z,1.92
2022-10-20T23:11:19.030Z,2.05
2022-10-20T23:13:47.280Z,2.17
2022-10-20T23:16:14.965Z,2.35
2022-10-20T23:18:42.353Z,2.20
2022-10-20T23:21:09.258Z,2.67
2022-10-20T23:23:39.099Z,2.65
2022-10-20T23:26:07.084Z,3.00
2022-10-20T23:28:35.180Z,3.05
2022-10-20T23:31:07.207Z,2.33
2022-10-20T23:33:35.214Z,2.05
2022-10-20T23:36:02.152Z,1.70
2022-10-20T23:38:29.110Z,1.80
2022-10-20T23:40:56.954Z,1.40
2022-10-20T23:43:24.108Z,1.77
2022-10-20T23:45:51.930Z,1.10
2022-10-20T23:48:18.942Z,1.40
2022-10-20T23:50:46.109Z,1.13
2022-10-20T23:53:13.502Z,1.45
2022-10-20T23:55:43.746Z,1.50
2022-10-20T23:58:12.027Z,1.33
